createdAt,value
2023-04-08T00:02:04.139Z,12.52
2023-04-08T00:05:13.089Z,14.27
2023-04-08T00:08:18.939Z,13.25
2023-04-08T00:11:24.317Z,10.50
2023-04-08T00:14:29.902Z,8.18
2023-04-08T00:17:35.603Z,13.27
2023-04-08T00:20:43.547Z,14.63
2023-04-08T00:23:48.557Z,15.75
2023-04-08T00:26:54.148Z,25.13
2023-04-08T00:30:00.386Z,16.42
2023-04-08T00:33:05.772Z,10.98
2023-04-08T00:36:13.658Z,9.57
2023-04-08T00:39:18.940Z,12.65
2023-04-08T00:42:24.320Z,12.32
2023-04-08T00:45:29.712Z,13.73
2023-04-08T00:48:35.524Z,11.00
2023-04-08T00:51:43.600Z,15.07
2023-04-08T00:54:49.396Z,10.13
2023-04-08T00:57:54.808Z,8.98
2023-04-08T01:01:02.697Z,14.07
2023-04-08T01:04:11.086Z,10.32
2023-04-08T01:10:25.578Z,10.55
2023-04-08T01:13:33.358Z,9.65
2023-04-08T01:16:39.336Z,14.55
2023-04-08T01:19:45.294Z,9.15
2023-04-08T01:22:58.493Z,14.55
2023-04-08T01:26:06.777Z,13.30
2023-04-08T01:29:12.210Z,13.23
2023-04-08T01:32:18.027Z,13.32
2023-04-08T01:35:23.863Z,10.85
2023-04-08T01:38:29.537Z,11.18
2023-04-08T01:41:39.316Z,15.88
2023-04-08T01:44:45.853Z,12.50
2023-04-08T01:47:52.438Z,13.30
2023-04-08T01:50:58.819Z,14.32
2023-04-08T01:54:04.459Z,16.92
2023-04-08T01:57:14.655Z,16.45
2023-04-08T02:00:22.735Z,9.73
2023-04-08T02:03:31.419Z,10.63
2023-04-08T02:06:37.209Z,10.18
2023-04-08T02:09:42.660Z,7.10
2023-04-08T02:12:50.666Z,11.48
2023-04-08T02:16:00.228Z,14.07
2023-04-08T02:19:09.760Z,14.90
2023-04-08T02:22:20.091Z,15.18
2023-04-08T02:25:27.753Z,18.35
2023-04-08T02:28:37.699Z,10.02
2023-04-08T02:31:44.701Z,13.70
2023-04-08T02:34:53.601Z,22.80
2023-04-08T02:37:58.817Z,11.25
2023-04-08T02:41:04.371Z,15.65
2023-04-08T02:44:12.136Z,11.50
2023-04-08T02:47:19.566Z,15.32
2023-04-08T02:50:24.938Z,15.18
2023-04-08T02:53:30.516Z,13.70
2023-04-08T02:56:36.301Z,13.77
2023-04-08T02:59:44.169Z,15.18
2023-04-08T03:02:49.732Z,22.02
2023-04-08T03:05:55.421Z,12.82
2023-04-08T03:09:00.808Z,10.40
2023-04-08T03:12:06.315Z,16.70
2023-04-08T03:15:14.646Z,15.07
2023-04-08T03:18:20.288Z,9.40
2023-04-08T03:21:25.549Z,13.02
2023-04-08T03:24:30.966Z,11.40
2023-04-08T03:27:36.530Z,16.27
2023-04-08T03:30:44.425Z,14.48
2023-04-08T03:33:49.587Z,20.00
2023-04-08T03:36:54.988Z,16.63
2023-04-08T03:40:00.141Z,10.45
2023-04-08T03:43:06.368Z,12.27
2023-04-08T03:46:14.341Z,12.85
2023-04-08T03:49:19.891Z,12.85
2023-04-08T03:52:26.511Z,14.10
2023-04-08T03:55:31.698Z,21.08
2023-04-08T03:58:37.323Z,14.18
2023-04-08T04:01:47.743Z,18.23
2023-04-08T04:04:53.564Z,26.90
2023-04-08T04:07:58.981Z,12.23
2023-04-08T04:11:04.439Z,12.25
2023-04-08T04:14:09.617Z,14.55
2023-04-08T04:17:17.680Z,12.85
2023-04-08T04:20:23.042Z,15.60
2023-04-08T04:23:28.477Z,14.02
2023-04-08T04:26:33.812Z,15.77
2023-04-08T04:29:39.602Z,16.60
2023-04-08T04:32:47.749Z,14.63
2023-04-08T04:35:53.355Z,16.48
2023-04-08T04:38:58.492Z,32.15
2023-04-08T04:42:04.093Z,15.70
2023-04-08T04:45:09.845Z,14.65
2023-04-08T04:48:18.042Z,13.80
2023-04-08T04:51:23.306Z,11.55
2023-04-08T04:54:28.824Z,24.40
2023-04-08T04:57:34.271Z,14.68
2023-04-08T05:00:39.669Z,16.58
2023-04-08T05:03:47.727Z,19.05
2023-04-08T05:06:53.595Z,18.67
2023-04-08T05:09:59.293Z,19.23
2023-04-08T05:13:04.521Z,15.57
2023-04-08T05:16:10.128Z,20.02
2023-04-08T05:19:18.389Z,15.73
2023-04-08T05:22:23.896Z,15.85
2023-04-08T05:25:29.435Z,19.75
2023-04-08T05:28:34.650Z,22.35
2023-04-08T05:31:40.027Z,20.00
2023-04-08T05:34:47.900Z,21.23
2023-04-08T05:37:53.101Z,15.93
2023-04-08T05:40:58.269Z,14.75
2023-04-08T05:44:03.752Z,15.32
2023-04-08T05:47:09.183Z,18.77
2023-04-08T05:50:17.249Z,26.05
2023-04-08T05:53:22.563Z,22.63
2023-04-08T05:56:27.923Z,26.48
2023-04-08T05:59:33.573Z,26.77
2023-04-08T06:02:38.993Z,26.05
2023-04-08T06:05:47.032Z,24.25
2023-04-08T06:08:53.000Z,17.13
2023-04-08T06:11:58.913Z,23.08
2023-04-08T06:15:04.827Z,21.05
2023-04-08T06:18:10.449Z,20.33
2023-04-08T06:21:18.323Z,21.50
2023-04-08T06:24:23.924Z,20.85
2023-04-08T06:27:29.186Z,24.48
2023-04-08T06:30:34.486Z,25.42
2023-04-08T06:33:40.131Z,31.15
2023-04-08T06:36:48.769Z,29.25
2023-04-08T06:42:59.239Z,20.35
2023-04-08T06:46:14.171Z,23.17
2023-04-08T06:49:19.667Z,24.13
2023-04-08T06:52:27.758Z,19.83
2023-04-08T06:55:33.096Z,26.00
2023-04-08T06:58:38.688Z,28.25
2023-04-08T07:01:43.999Z,20.45
2023-04-08T07:04:49.942Z,18.52
2023-04-08T07:07:58.096Z,18.10
2023-04-08T07:11:03.684Z,14.35
2023-04-08T07:14:08.926Z,17.52
2023-04-08T07:17:14.414Z,18.98
2023-04-08T07:20:19.590Z,20.48
2023-04-08T07:23:27.876Z,18.63
2023-04-08T07:26:33.073Z,17.05
2023-04-08T07:29:38.363Z,17.92
2023-04-08T07:32:43.523Z,17.85
2023-04-08T07:35:48.869Z,23.90
2023-04-08T07:38:56.756Z,23.45
2023-04-08T07:42:02.275Z,27.17
2023-04-08T07:45:07.725Z,16.13
2023-04-08T07:48:13.065Z,16.38
2023-04-08T07:51:20.429Z,23.15
2023-04-08T07:54:29.412Z,19.60
2023-04-08T07:57:34.648Z,17.92
2023-04-08T08:00:41.450Z,20.25
2023-04-08T08:03:48.320Z,15.93
2023-04-08T08:06:54.524Z,18.85
2023-04-08T08:10:02.421Z,15.45
2023-04-08T08:13:08.271Z,13.90
2023-04-08T08:16:14.169Z,11.90
2023-04-08T08:19:19.525Z,12.95
2023-04-08T08:22:25.033Z,14.20
2023-04-08T08:25:33.142Z,16.15
2023-04-08T08:28:38.475Z,17.30
2023-04-08T08:31:44.192Z,17.30
2023-04-08T08:34:50.089Z,15.23
2023-04-08T08:37:55.364Z,9.48
2023-04-08T08:41:05.106Z,12.38
2023-04-08T08:44:10.941Z,15.93
2023-04-08T08:47:16.351Z,16.95
2023-04-08T08:50:21.826Z,11.40
2023-04-08T08:53:35.033Z,8.65
2023-04-08T08:56:43.902Z,12.00
2023-04-08T08:59:49.810Z,7.07
2023-04-08T09:02:55.253Z,9.55
2023-04-08T09:06:01.583Z,9.50
2023-04-08T09:09:10.872Z,10.02
2023-04-08T09:12:18.753Z,8.30
2023-04-08T09:15:24.515Z,8.27
2023-04-08T09:18:30.033Z,20.13
2023-04-08T09:21:35.577Z,6.80
2023-04-08T09:24:41.299Z,8.57
2023-04-08T09:27:49.354Z,11.32
2023-04-08T09:30:54.695Z,8.60
2023-04-08T09:34:00.704Z,13.20
2023-04-08T09:37:06.131Z,7.75
2023-04-08T09:40:14.077Z,10.55
2023-04-08T09:43:24.006Z,7.68
2023-04-08T09:46:30.206Z,11.23
2023-04-08T09:49:39.823Z,13.18
2023-04-08T09:52:47.627Z,12.82
2023-04-08T09:55:54.656Z,14.70
2023-04-08T09:59:03.992Z,20.88
2023-04-08T10:02:13.183Z,13.60
2023-04-08T10:05:20.405Z,13.35
2023-04-08T10:08:27.437Z,14.38
2023-04-08T10:11:33.437Z,19.75
2023-04-08T10:14:42.235Z,12.20
2023-04-08T10:17:47.837Z,15.48
2023-04-08T10:20:53.382Z,12.63
2023-04-08T10:24:00.477Z,24.85
2023-04-08T10:27:06.859Z,16.42
2023-04-08T10:30:40.504Z,20.55
2023-04-08T10:33:45.801Z,14.02
2023-04-08T10:36:51.399Z,16.40
2023-04-08T10:39:57.676Z,14.75
2023-04-08T10:43:03.360Z,15.65
2023-04-08T10:46:13.323Z,15.73
2023-04-08T10:49:19.214Z,16.63
2023-04-08T10:52:24.572Z,19.95
2023-04-08T10:55:30.670Z,17.50
2023-04-08T10:58:36.734Z,13.85
2023-04-08T11:01:45.465Z,17.33
2023-04-08T11:04:51.110Z,15.60
2023-04-08T11:07:56.913Z,16.30
2023-04-08T11:11:03.005Z,18.67
2023-04-08T11:14:08.882Z,12.38
2023-04-08T11:17:18.424Z,18.67
2023-04-08T11:20:24.113Z,15.95
2023-04-08T11:23:29.687Z,15.68
2023-04-08T11:26:34.934Z,10.98
2023-04-08T11:29:41.030Z,16.38
2023-04-08T11:32:49.551Z,14.13
2023-04-08T11:35:55.025Z,14.70
2023-04-08T11:39:00.541Z,12.60
2023-04-08T11:42:08.037Z,11.27
2023-04-08T11:45:14.071Z,12.73
2023-04-08T11:48:22.347Z,10.85
2023-04-08T11:51:28.285Z,12.55
2023-04-08T11:54:34.604Z,17.13
2023-04-08T11:57:39.875Z,16.27
2023-04-08T12:00:46.038Z,13.10
2023-04-08T12:04:07.345Z,10.43
2023-04-08T12:07:12.887Z,8.65
2023-04-08T12:10:18.528Z,11.82
2023-04-08T12:13:24.206Z,8.27
2023-04-08T12:16:29.833Z,10.77
2023-04-08T12:19:38.559Z,8.43
2023-04-08T12:22:44.043Z,8.85
2023-04-08T12:25:49.606Z,14.10
2023-04-08T12:28:58.181Z,13.98
2023-04-08T12:32:04.901Z,12.35
2023-04-08T12:35:12.904Z,8.87
2023-04-08T12:38:18.228Z,15.23
2023-04-08T12:41:23.940Z,10.95
2023-04-08T12:44:29.298Z,8.70
2023-04-08T12:47:34.799Z,14.93
2023-04-08T12:50:42.688Z,11.02
2023-04-08T12:53:48.116Z,14.85
2023-04-08T12:56:53.432Z,9.27
2023-04-08T12:59:58.833Z,14.13
2023-04-08T13:03:04.080Z,16.40
2023-04-08T13:06:12.687Z,14.23
2023-04-08T13:09:18.775Z,12.57
2023-04-08T13:12:24.198Z,11.32
2023-04-08T13:15:29.357Z,9.45
2023-04-08T13:18:34.685Z,10.32
2023-04-08T13:21:44.986Z,14.27
2023-04-08T13:24:51.794Z,8.70
2023-04-08T13:27:57.063Z,9.68
2023-04-08T13:31:02.735Z,11.85
2023-04-08T13:34:07.974Z,14.02
2023-04-08T13:37:16.172Z,11.63
2023-04-08T13:40:21.688Z,12.50
2023-04-08T13:43:27.190Z,14.18
2023-04-08T13:46:32.246Z,13.73
2023-04-08T13:49:37.684Z,12.10
2023-04-08T13:52:45.467Z,13.07
2023-04-08T13:55:55.524Z,9.45
2023-04-08T13:59:00.990Z,13.98
2023-04-08T14:02:07.142Z,16.52
2023-04-08T14:05:12.433Z,13.98
2023-04-08T14:08:25.865Z,13.85
2023-04-08T14:11:31.412Z,12.57
2023-04-08T14:14:37.093Z,17.95
2023-04-08T14:17:42.361Z,15.25
2023-04-08T14:20:48.060Z,16.17
2023-04-08T14:23:55.977Z,11.02
2023-04-08T14:27:01.247Z,19.88
2023-04-08T14:30:07.003Z,13.63
2023-04-08T14:33:12.458Z,13.73
2023-04-08T14:36:17.901Z,11.15
2023-04-08T14:39:26.536Z,12.43
2023-04-08T14:42:31.895Z,9.88
2023-04-08T14:45:37.392Z,16.90
2023-04-08T14:48:42.554Z,15.30
2023-04-08T14:51:48.158Z,16.15
2023-04-08T14:54:56.325Z,10.70
2023-04-08T14:58:01.875Z,15.27
2023-04-08T15:01:08.030Z,21.15
2023-04-08T15:04:13.649Z,14.00
2023-04-08T15:07:19.369Z,20.38
2023-04-08T15:10:28.372Z,14.38
2023-04-08T15:13:36.474Z,21.00
2023-04-08T15:16:41.704Z,11.68
2023-04-08T15:19:47.367Z,14.98
2023-04-08T15:22:52.560Z,10.77
2023-04-08T15:26:00.374Z,15.63
2023-04-08T15:29:05.558Z,12.77
2023-04-08T15:32:10.972Z,19.10
2023-04-08T15:35:16.554Z,13.20
2023-04-08T15:38:22.422Z,20.77
2023-04-08T15:41:30.294Z,16.88
2023-04-08T15:44:35.687Z,10.63
2023-04-08T15:47:42.095Z,13.38
2023-04-08T15:50:47.768Z,14.02
2023-04-08T15:53:53.443Z,17.30
2023-04-08T15:57:03.083Z,15.63
2023-04-08T16:00:13.189Z,14.52
2023-04-08T16:03:20.004Z,25.42
2023-04-08T16:06:26.074Z,19.02
2023-04-08T16:09:31.794Z,22.63
2023-04-08T16:12:39.612Z,14.48
2023-04-08T16:15:45.653Z,18.30
2023-04-08T16:18:51.063Z,19.73
2023-04-08T16:21:56.990Z,21.45
2023-04-08T16:25:02.430Z,25.25
2023-04-08T16:28:11.612Z,26.15
2023-04-08T16:31:18.227Z,24.00
2023-04-08T16:34:24.013Z,21.92
2023-04-08T16:37:29.366Z,20.80
2023-04-08T16:40:35.697Z,24.27
2023-04-08T16:43:43.752Z,17.85
2023-04-08T16:46:49.431Z,32.88
2023-04-08T16:49:55.031Z,27.25
2023-04-08T16:53:00.410Z,17.55
2023-04-08T16:56:05.955Z,29.05
2023-04-08T16:59:13.849Z,24.77
2023-04-08T17:02:19.298Z,37.72
2023-04-08T17:05:25.653Z,16.98
2023-04-08T17:08:31.159Z,25.40
2023-04-08T17:11:36.772Z,26.08
2023-04-08T17:14:45.548Z,21.17
2023-04-08T17:17:50.829Z,23.83
2023-04-08T17:20:56.319Z,23.50
2023-04-08T17:24:01.955Z,27.27
2023-04-08T17:27:07.556Z,33.40
2023-04-08T17:30:15.996Z,26.23
2023-04-08T17:36:28.581Z,29.17
2023-04-08T17:39:41.121Z,21.20
2023-04-08T17:42:46.339Z,28.77
2023-04-08T17:45:54.589Z,25.33
2023-04-08T17:52:05.131Z,24.90
2023-04-08T17:55:11.138Z,31.10
2023-04-08T17:58:17.737Z,26.05
2023-04-08T18:01:25.675Z,31.05
2023-04-08T18:04:31.809Z,25.55
2023-04-08T18:07:37.552Z,29.98
2023-04-08T18:10:44.335Z,23.17
2023-04-08T18:13:51.277Z,26.27
2023-04-08T18:16:59.735Z,23.67
2023-04-08T18:20:04.940Z,32.60
2023-04-08T18:23:10.117Z,23.35
2023-04-08T18:26:15.774Z,18.60
2023-04-08T18:29:21.485Z,28.77
2023-04-08T18:32:29.605Z,31.52
2023-04-08T18:35:34.823Z,37.13
2023-04-08T18:38:41.293Z,23.67
2023-04-08T18:41:46.601Z,27.08
2023-04-08T18:44:52.185Z,23.35
2023-04-08T18:48:00.222Z,21.08
2023-04-08T18:51:05.720Z,29.75
2023-04-08T18:54:10.844Z,22.73
2023-04-08T18:57:16.384Z,20.63
2023-04-08T19:00:21.803Z,22.85
2023-04-08T19:03:29.884Z,23.23
2023-04-08T19:06:37.762Z,20.92
2023-04-08T19:09:43.510Z,24.88
2023-04-08T19:12:49.123Z,24.52
2023-04-08T19:15:55.052Z,22.58
2023-04-08T19:19:02.874Z,26.02
2023-04-08T19:22:08.138Z,23.52
2023-04-08T19:25:13.329Z,29.80
2023-04-08T19:28:18.485Z,29.52
2023-04-08T19:31:23.807Z,33.50
2023-04-08T19:34:31.959Z,24.38
2023-04-08T19:37:37.448Z,28.85
2023-04-08T19:40:43.333Z,28.25
2023-04-08T19:43:48.491Z,23.05
2023-04-08T19:46:54.048Z,23.52
2023-04-08T19:50:02.139Z,27.08
2023-04-08T19:56:13.136Z,30.08
2023-04-08T19:59:19.570Z,21.75
2023-04-08T20:02:25.699Z,21.20
2023-04-08T20:05:34.141Z,21.17
2023-04-08T20:08:39.496Z,23.60
2023-04-08T20:11:45.242Z,28.25
2023-04-08T20:14:50.891Z,20.10
2023-04-08T20:17:57.287Z,24.75
2023-04-08T20:21:05.737Z,29.42
2023-04-08T20:24:11.087Z,17.63
2023-04-08T20:27:16.966Z,30.70
2023-04-08T20:30:22.233Z,22.30
2023-04-08T20:33:27.626Z,25.83
2023-04-08T20:36:35.469Z,21.88
2023-04-08T20:39:40.778Z,18.25
2023-04-08T20:42:46.012Z,32.78
2023-04-08T20:45:51.493Z,21.35
2023-04-08T20:48:57.552Z,23.75
2023-04-08T20:52:05.737Z,20.67
2023-04-08T20:55:11.675Z,23.58
2023-04-08T20:58:17.209Z,22.42
2023-04-08T21:01:22.319Z,23.70
2023-04-08T21:04:27.557Z,21.90
2023-04-08T21:07:36.026Z,25.65
2023-04-08T21:13:48.908Z,25.60
2023-04-08T21:16:54.883Z,20.33
2023-04-08T21:20:00.330Z,21.35
2023-04-08T21:23:08.573Z,22.50
2023-04-08T21:26:14.231Z,21.00
2023-04-08T21:29:19.610Z,21.17
2023-04-08T21:32:25.056Z,19.30
2023-04-08T21:35:30.386Z,21.35
2023-04-08T21:38:38.263Z,21.08
2023-04-08T21:41:43.573Z,20.20
2023-04-08T21:44:48.834Z,20.67
2023-04-08T21:47:55.478Z,18.85
2023-04-08T21:51:01.355Z,18.38
2023-04-08T21:54:09.283Z,22.40
2023-04-08T21:57:14.488Z,20.85
2023-04-08T22:00:19.731Z,28.02
2023-04-08T22:03:44.384Z,18.85
2023-04-08T22:06:51.630Z,21.63
2023-04-08T22:10:01.683Z,23.27
2023-04-08T22:13:08.413Z,23.05
2023-04-08T22:16:13.848Z,20.83
2023-04-08T22:19:19.262Z,17.02
2023-04-08T22:22:24.642Z,20.90
2023-04-08T22:25:32.347Z,20.02
2023-04-08T22:28:38.076Z,21.02
2023-04-08T22:31:43.480Z,17.88
2023-04-08T22:34:48.729Z,16.58
2023-04-08T22:37:54.140Z,30.38
2023-04-08T22:41:02.234Z,16.48
2023-04-08T22:44:07.817Z,22.92
2023-04-08T22:47:13.166Z,25.00
2023-04-08T22:50:18.724Z,22.10
2023-04-08T22:53:23.973Z,21.92
2023-04-08T22:56:32.187Z,22.10
2023-04-08T22:59:37.350Z,19.13
2023-04-08T23:02:43.236Z,24.17
2023-04-08T23:05:48.663Z,21.08
2023-04-08T23:08:54.199Z,23.88
2023-04-08T23:12:02.421Z,20.23
2023-04-08T23:15:08.696Z,17.65
2023-04-08T23:18:13.979Z,20.73
2023-04-08T23:21:20.653Z,25.42
2023-04-08T23:24:26.128Z,20.88
2023-04-08T23:27:33.886Z,24.45
2023-04-08T23:30:39.699Z,21.73
2023-04-08T23:33:45.158Z,22.35
2023-04-08T23:36:50.625Z,22.88
2023-04-08T23:39:55.748Z,20.67
2023-04-08T23:43:04.037Z,20.88
2023-04-08T23:46:09.454Z,27.55
2023-04-08T23:49:14.749Z,19.50
2023-04-08T23:52:20.298Z,22.23
2023-04-08T23:55:25.930Z,23.63
2023-04-08T23:58:33.811Z,21.73
